createdAt,value
2022-10-09T00:04:20.881Z,13.30
2022-10-09T00:09:23.824Z,13.30
2022-10-09T00:14:26.698Z,13.00
2022-10-09T00:19:30.951Z,12.80
2022-10-09T00:24:33.878Z,12.80
2022-10-09T00:29:36.885Z,12.60
2022-10-09T00:34:41.143Z,12.50
2022-10-09T00:39:44.132Z,12.70
2022-10-09T00:44:54.342Z,12.50
2022-10-09T00:50:03.493Z,12.20
2022-10-09T00:55:09.107Z,12.40
2022-10-09T01:00:14.051Z,12.60
2022-10-09T01:05:18.489Z,12.50
2022-10-09T01:10:29.845Z,12.00
2022-10-09T01:15:38.263Z,11.80
2022-10-09T01:20:50.074Z,11.70
2022-10-09T01:26:05.291Z,11.90
2022-10-09T01:31:12.861Z,11.90
2022-10-09T01:36:17.059Z,12.10
2022-10-09T01:41:21.104Z,12.00
2022-10-09T01:46:29.214Z,11.70
2022-10-09T01:51:38.262Z,11.10
2022-10-09T01:56:41.901Z,11.10
2022-10-09T02:01:47.835Z,11.40
2022-10-09T02:06:51.032Z,11.60
2022-10-09T02:11:58.050Z,11.20
2022-10-09T02:17:05.643Z,11.30
2022-10-09T02:22:14.498Z,11.40
2022-10-09T02:27:20.007Z,11.40
2022-10-09T02:32:24.518Z,11.40
2022-10-09T02:37:27.593Z,11.00
2022-10-09T02:42:30.471Z,11.00
2022-10-09T02:47:34.758Z,11.30
2022-10-09T02:52:37.724Z,11.40
2022-10-09T02:57:40.668Z,11.20
2022-10-09T03:02:45.010Z,11.40
2022-10-09T03:07:51.500Z,11.20
2022-10-09T03:12:54.498Z,11.20
2022-10-09T03:17:58.734Z,11.20
2022-10-09T03:23:01.682Z,11.10
2022-10-09T03:28:04.718Z,11.00
2022-10-09T03:33:08.941Z,10.50
2022-10-09T03:38:11.806Z,10.90
2022-10-09T03:43:14.683Z,10.90
2022-10-09T03:48:18.903Z,10.80
2022-10-09T03:53:21.770Z,10.50
2022-10-09T03:58:25.019Z,10.40
2022-10-09T04:03:29.362Z,10.10
2022-10-09T04:08:32.231Z,10.40
2022-10-09T04:13:35.107Z,10.60
2022-10-09T04:18:40.427Z,10.30
2022-10-09T04:23:43.569Z,10.30
2022-10-09T04:28:46.493Z,10.10
2022-10-09T04:33:50.759Z,10.30
2022-10-09T04:38:53.661Z,10.40
2022-10-09T04:43:57.044Z,10.10
2022-10-09T04:49:01.428Z,10.40
2022-10-09T04:54:04.357Z,10.20
2022-10-09T04:59:13.632Z,10.40
2022-10-09T05:04:17.897Z,10.20
2022-10-09T05:09:20.843Z,10.10
2022-10-09T05:14:23.846Z,10.20
2022-10-09T05:19:28.145Z,10.10
2022-10-09T05:24:31.049Z,10.20
2022-10-09T05:29:34.447Z,10.40
2022-10-09T05:34:38.732Z,10.40
2022-10-09T05:39:41.641Z,10.20
2022-10-09T05:44:44.505Z,10.10
2022-10-09T05:49:48.743Z,10.10
2022-10-09T05:54:51.751Z,10.00
2022-10-09T05:59:54.695Z,10.00
2022-10-09T06:04:59.004Z,9.70
2022-10-09T06:10:01.843Z,9.80
2022-10-09T06:15:05.343Z,9.80
2022-10-09T06:20:10.304Z,9.80
2022-10-09T06:25:13.208Z,9.50
2022-10-09T06:30:16.256Z,9.80
2022-10-09T06:35:20.613Z,9.90
2022-10-09T06:40:29.519Z,10.10
2022-10-09T06:45:36.822Z,10.20
2022-10-09T06:50:41.098Z,10.20
2022-10-09T06:55:52.735Z,10.10
2022-10-09T07:01:06.995Z,10.00
2022-10-09T07:06:14.127Z,9.90
2022-10-09T07:11:20.976Z,10.10
2022-10-09T07:16:25.665Z,10.30
2022-10-09T07:21:30.279Z,10.60
2022-10-09T07:26:34.578Z,10.70
2022-10-09T07:31:37.676Z,10.70
2022-10-09T07:36:41.926Z,11.00
2022-10-09T07:41:44.826Z,11.00
2022-10-09T07:46:50.095Z,11.10
2022-10-09T07:51:54.404Z,11.20
2022-10-09T07:56:59.388Z,11.20
2022-10-09T08:08:30.301Z,11.40
2022-10-09T08:13:33.901Z,11.50
2022-10-09T08:18:37.457Z,11.70
2022-10-09T08:23:42.165Z,12.10
2022-10-09T08:28:45.394Z,12.20
2022-10-09T08:33:48.384Z,12.40
2022-10-09T08:38:53.608Z,12.80
2022-10-09T08:44:03.082Z,13.00
2022-10-09T08:49:06.389Z,13.20
2022-10-09T08:54:20.247Z,13.30
2022-10-09T08:59:23.130Z,13.50
2022-10-09T09:04:38.199Z,13.70
2022-10-09T09:09:51.191Z,13.50
2022-10-09T09:15:09.542Z,13.50
2022-10-09T09:20:17.429Z,13.60
2022-10-09T09:25:25.826Z,14.00
2022-10-09T09:30:36.553Z,13.90
2022-10-09T09:35:47.746Z,14.20
2022-10-09T09:40:52.080Z,14.40
2022-10-09T09:45:57.231Z,14.40
2022-10-09T09:51:26.741Z,14.80
2022-10-09T09:57:07.076Z,15.20
2022-10-09T10:02:05.378Z,15.10
2022-10-09T10:07:08.513Z,15.00
2022-10-09T10:12:17.825Z,15.10
2022-10-09T10:17:33.281Z,15.30
2022-10-09T10:22:37.172Z,15.50
2022-10-09T10:27:43.566Z,15.60
2022-10-09T10:32:53.518Z,15.60
2022-10-09T10:38:02.766Z,15.90
2022-10-09T10:43:16.340Z,16.30
2022-10-09T10:48:25.346Z,16.60
2022-10-09T10:53:40.752Z,16.40
2022-10-09T10:58:52.175Z,16.80
2022-10-09T11:04:18.732Z,16.90
2022-10-09T11:09:29.677Z,17.20
2022-10-09T11:14:42.889Z,17.20
2022-10-09T11:20:00.959Z,17.40
2022-10-09T11:25:30.140Z,17.30
2022-10-09T11:30:42.855Z,17.50
2022-10-09T11:35:49.747Z,17.60
2022-10-09T11:40:53.722Z,17.60
2022-10-09T11:46:02.718Z,17.70
2022-10-09T11:51:12.737Z,17.70
2022-10-09T11:56:32.035Z,17.80
2022-10-09T12:01:38.365Z,18.10
2022-10-09T12:06:48.321Z,18.30
2022-10-09T12:12:01.622Z,18.40
2022-10-09T12:17:17.651Z,18.40
2022-10-09T12:22:24.716Z,18.50
2022-10-09T12:27:29.934Z,18.40
2022-10-09T12:32:39.145Z,18.60
2022-10-09T12:37:43.169Z,18.80
2022-10-09T12:42:46.866Z,18.70
2022-10-09T12:47:53.249Z,18.60
2022-10-09T12:52:59.020Z,18.70
2022-10-09T12:58:04.935Z,18.90
2022-10-09T13:03:23.632Z,19.00
2022-10-09T13:08:30.193Z,19.00
2022-10-09T13:13:33.231Z,19.00
2022-10-09T13:18:38.609Z,19.10
2022-10-09T13:23:43.118Z,19.10
2022-10-09T13:28:46.088Z,19.10
2022-10-09T13:33:50.679Z,19.40
2022-10-09T13:38:53.632Z,19.40
2022-10-09T13:43:56.588Z,19.40
2022-10-09T13:49:00.817Z,19.50
2022-10-09T13:54:03.744Z,19.60
2022-10-09T13:59:06.647Z,19.60
2022-10-09T14:04:10.907Z,19.70
2022-10-09T14:09:13.906Z,19.90
2022-10-09T14:14:16.979Z,19.80
2022-10-09T14:19:26.359Z,19.80
2022-10-09T14:24:29.281Z,19.90
2022-10-09T14:29:32.296Z,19.90
2022-10-09T14:34:36.516Z,20.00
2022-10-09T14:39:39.390Z,19.90
2022-10-09T14:44:42.375Z,20.00
2022-10-09T14:49:46.773Z,20.00
2022-10-09T14:54:49.738Z,20.20
2022-10-09T14:59:52.984Z,20.10
2022-10-09T15:04:57.246Z,20.20
2022-10-09T15:10:07.962Z,20.20
2022-10-09T15:15:11.648Z,20.20
2022-10-09T15:20:15.961Z,20.10
2022-10-09T15:25:18.825Z,20.10
2022-10-09T15:30:23.764Z,20.20
2022-10-09T15:35:28.175Z,20.20
2022-10-09T15:40:31.107Z,20.20
2022-10-09T15:45:35.707Z,20.00
2022-10-09T15:50:40.030Z,19.90
2022-10-09T15:55:45.003Z,19.80
2022-10-09T16:00:51.232Z,19.80
2022-10-09T16:05:56.265Z,19.80
2022-10-09T16:10:59.571Z,19.70
2022-10-09T16:16:06.373Z,19.60
2022-10-09T16:21:13.867Z,19.40
2022-10-09T16:26:20.141Z,19.40
2022-10-09T16:31:24.699Z,19.30
2022-10-09T16:36:29.379Z,19.20
2022-10-09T16:41:37.233Z,19.20
2022-10-09T16:46:44.577Z,19.00
2022-10-09T16:51:48.874Z,19.00
2022-10-09T16:56:52.085Z,18.70
2022-10-09T17:01:57.162Z,18.50
2022-10-09T17:07:01.490Z,18.30
2022-10-09T17:12:04.674Z,18.40
2022-10-09T17:17:10.132Z,18.30
2022-10-09T17:22:14.467Z,18.00
2022-10-09T17:27:17.664Z,18.10
2022-10-09T17:32:20.840Z,17.70
2022-10-09T17:37:25.360Z,17.60
2022-10-09T17:42:32.962Z,17.80
2022-10-09T17:47:40.993Z,17.80
2022-10-09T17:52:46.321Z,17.90
2022-10-09T17:57:49.745Z,17.70
2022-10-09T18:02:55.714Z,17.60
2022-10-09T18:08:02.840Z,17.60
2022-10-09T18:13:10.074Z,17.50
2022-10-09T18:18:13.867Z,17.40
2022-10-09T18:23:22.532Z,17.30
2022-10-09T18:33:33.969Z,17.30
2022-10-09T18:38:38.230Z,17.30
2022-10-09T18:43:41.149Z,17.00
2022-10-09T18:48:44.490Z,17.00
2022-10-09T18:53:52.869Z,17.10
2022-10-09T18:58:55.905Z,16.80
2022-10-09T19:03:59.843Z,16.90
2022-10-09T19:09:05.095Z,17.00
2022-10-09T19:14:08.019Z,16.70
2022-10-09T19:19:11.255Z,16.70
2022-10-09T19:24:15.511Z,16.70
2022-10-09T19:29:18.493Z,16.60
2022-10-09T19:34:21.346Z,16.30
2022-10-09T19:39:25.910Z,16.30
2022-10-09T19:44:28.941Z,16.30
2022-10-09T19:49:32.920Z,16.20
2022-10-09T19:54:37.787Z,15.90
2022-10-09T19:59:40.657Z,15.80
2022-10-09T20:04:43.569Z,16.00
2022-10-09T20:09:47.802Z,15.90
2022-10-09T20:14:50.875Z,15.80
2022-10-09T20:19:53.741Z,15.90
2022-10-09T20:24:58.021Z,15.80
2022-10-09T20:30:00.947Z,15.90
2022-10-09T20:35:03.857Z,15.80
2022-10-09T20:40:08.856Z,15.90
2022-10-09T20:45:11.789Z,15.90
2022-10-09T20:50:14.653Z,15.80
2022-10-09T20:55:19.024Z,15.70
2022-10-09T21:00:21.891Z,15.70
2022-10-09T21:05:24.855Z,15.60
2022-10-09T21:10:29.099Z,15.60
2022-10-09T21:15:31.953Z,15.50
2022-10-09T21:20:37.899Z,15.50
2022-10-09T21:25:48.025Z,15.20
2022-10-09T21:30:51.066Z,15.00
2022-10-09T21:35:55.336Z,15.00
2022-10-09T21:40:59.607Z,15.20
2022-10-09T21:46:02.541Z,15.20
2022-10-09T21:51:05.587Z,15.00
2022-10-09T21:56:10.698Z,15.00
2022-10-09T22:01:14.048Z,15.10
2022-10-09T22:06:19.476Z,15.10
2022-10-09T22:11:24.375Z,14.50
2022-10-09T22:16:27.313Z,14.40
2022-10-09T22:21:30.243Z,14.60
2022-10-09T22:26:35.853Z,14.60
2022-10-09T22:31:38.783Z,14.30
2022-10-09T22:36:41.767Z,14.40
2022-10-09T22:41:46.207Z,13.90
2022-10-09T22:46:51.090Z,14.00
2022-10-09T22:51:53.966Z,14.10
2022-10-09T22:56:58.179Z,13.70
2022-10-09T23:02:01.214Z,13.80
2022-10-09T23:07:04.319Z,13.80
2022-10-09T23:12:08.509Z,13.90
2022-10-09T23:17:11.401Z,14.00
2022-10-09T23:22:14.249Z,14.20
2022-10-09T23:27:18.471Z,14.20
2022-10-09T23:32:21.384Z,14.20
2022-10-09T23:37:24.340Z,14.20
2022-10-09T23:42:28.577Z,14.10
2022-10-09T23:47:31.439Z,14.00
2022-10-09T23:52:34.691Z,14.20
2022-10-09T23:57:38.946Z,14.10
